Time;durP1;ratioP1;P1;durP2;ratioP2;P2;SDS_P1;SDS_P2;PMS_P1;PMS_P2;Temp;Humidity;BMP_temperature;BMP_pressure;BME280_temperature;BME280_humidity;BME280_pressure;Samples;Min_cycle;Max_cycle;Signal;HPM_P1;HPM_P2
2022/04/05 00:02:14;;;;;;;9.75;7.90;;;;;;;4.68;43.81;101144.19;5049559;28;20877;-59
2022/04/05 00:04:41;;;;;;;9.68;7.68;;;;;;;4.75;43.71;101139.28;5049186;28;20432;-58
2022/04/05 00:08:57;;;;;;;9.07;8.00;;;;;;;4.71;43.86;101137.84;5067667;28;20469;-58
2022/04/05 00:11:24;;;;;;;10.02;7.88;;;;;;;4.92;43.01;101133.53;5047858;28;20508;-57
2022/04/05 00:13:51;;;;;;;8.43;7.50;;;;;;;5.06;43.17;101135.03;5060400;28;20827;-58
2022/04/05 00:16:18;;;;;;;10.80;7.80;;;;;;;5.11;42.83;101132.03;5047802;28;20425;-59
2022/04/05 00:18:45;;;;;;;10.75;7.90;;;;;;;5.08;42.85;101130.50;5052259;28;20429;-58
2022/04/05 00:21:12;;;;;;;10.15;7.45;;;;;;;5.14;42.54;101139.69;5061261;28;20477;-59
2022/04/05 00:23:39;;;;;;;9.65;7.15;;;;;;;5.10;42.88;101133.00;5049528;28;20449;-58
2022/04/05 00:26:07;;;;;;;9.60;7.10;;;;;;;4.98;43.03;101135.63;5060070;28;20479;-58
2022/04/05 00:28:34;;;;;;;8.38;7.07;;;;;;;5.06;42.84;101129.78;5047555;28;20429;-58
2022/04/05 00:31:01;;;;;;;9.80;7.82;;;;;;;5.16;42.69;101128.06;5045836;28;20506;-58
2022/04/05 00:33:28;;;;;;;10.18;8.05;;;;;;;5.18;42.27;101120.06;5052504;28;20911;-58
2022/04/05 00:35:54;;;;;;;8.90;7.70;;;;;;;5.10;42.35;101127.75;5055780;28;20424;-58
2022/04/05 00:38:21;;;;;;;9.23;7.45;;;;;;;5.04;42.49;101121.19;5053870;28;20419;-58
2022/04/05 00:40:48;;;;;;;10.13;7.30;;;;;;;5.11;42.32;101125.00;5054131;28;20456;-58
2022/04/05 00:43:17;;;;;;;9.95;7.45;;;;;;;4.96;42.73;101113.91;5047217;28;20421;-59
2022/04/05 00:45:44;;;;;;;9.05;7.75;;;;;;;4.99;42.61;101115.47;5061894;28;20416;-58
2022/04/05 00:48:12;;;;;;;10.27;7.50;;;;;;;4.89;42.24;101109.28;5051942;28;20481;-58
2022/04/05 00:50:40;;;;;;;9.13;7.30;;;;;;;4.82;42.43;101105.47;5055298;28;20428;-58
2022/04/05 00:53:07;;;;;;;10.70;7.32;;;;;;;4.63;43.28;101100.84;5059457;28;20502;-58
2022/04/05 00:55:35;;;;;;;9.20;7.40;;;;;;;4.77;42.88;101103.22;5038824;28;20431;-59
2022/04/05 00:58:04;;;;;;;8.43;7.13;;;;;;;4.77;42.87;101106.69;5060097;28;20433;-58
2022/04/05 01:00:34;;;;;;;9.23;7.00;;;;;;;4.73;43.05;101097.38;5054812;28;20456;-58
2022/04/05 01:03:01;;;;;;;9.32;7.53;;;;;;;4.77;42.91;101088.31;5052264;28;20425;-58
2022/04/05 01:05:29;;;;;;;9.18;7.32;;;;;;;4.70;43.21;101088.91;5046192;28;20428;-58
2022/04/05 01:08:02;;;;;;;9.38;7.38;;;;;;;4.81;42.68;101082.78;5073285;28;20432;-59
2022/04/05 01:10:29;;;;;;;9.38;7.68;;;;;;;4.78;42.82;101082.06;5073736;28;20919;-59
2022/04/05 01:12:56;;;;;;;9.85;7.50;;;;;;;4.84;43.44;101077.28;5072734;28;20873;-57
2022/04/05 01:15:23;;;;;;;9.07;7.47;;;;;;;4.82;43.21;101076.59;5081342;28;20953;-58
2022/04/05 01:17:53;;;;;;;14.02;7.72;;;;;;;4.79;42.74;101077.69;5068816;28;20418;-58
2022/04/05 01:20:20;;;;;;;9.88;7.97;;;;;;;4.67;42.98;101078.66;5068178;28;20418;-59
2022/04/05 01:22:50;;;;;;;12.32;8.55;;;;;;;4.47;43.94;101085.50;5061331;28;20460;-58
2022/04/05 01:25:19;;;;;;;13.13;8.68;;;;;;;4.43;44.30;101081.44;5066893;28;20418;-58
2022/04/05 01:27:50;;;;;;;11.43;8.45;;;;;;;4.34;44.57;101081.22;5067339;28;20434;-58
2022/04/05 01:30:16;;;;;;;10.70;8.93;;;;;;;4.50;44.09;101072.09;5058378;28;20418;-58
2022/04/05 01:32:44;;;;;;;9.38;8.13;;;;;;;4.62;43.83;101072.94;5061515;28;20446;-58
2022/04/05 01:35:11;;;;;;;10.23;8.07;;;;;;;4.56;43.74;101076.88;5065990;28;20414;-58
2022/04/05 01:37:38;;;;;;;10.55;8.20;;;;;;;4.55;43.81;101075.22;5054716;28;20450;-58
2022/04/05 01:40:06;;;;;;;9.48;7.82;;;;;;;4.53;43.71;101072.69;5069913;28;20503;-58
2022/04/05 01:42:37;;;;;;;10.88;7.72;;;;;;;4.50;43.70;101070.34;5063047;28;20500;-58
2022/04/05 01:45:05;;;;;;;10.50;7.93;;;;;;;4.44;44.20;101059.47;5064294;28;20472;-58
2022/04/05 01:47:32;;;;;;;10.18;7.75;;;;;;;4.47;44.13;101051.38;5054578;28;20507;-57
2022/04/05 01:49:59;;;;;;;13.30;8.90;;;;;;;4.53;43.95;101054.31;5047150;28;20421;-59
2022/04/05 01:53:07;;;;;;;13.82;10.50;;;;;;;4.53;43.75;101048.25;5063273;28;20403;-59
2022/04/05 01:55:34;;;;;;;12.68;8.90;;;;;;;4.39;44.03;101054.59;5038507;28;20438;-58
2022/04/05 01:58:02;;;;;;;10.40;8.30;;;;;;;4.42;44.05;101054.34;5042450;28;20421;-59
2022/04/05 02:00:29;;;;;;;10.77;8.90;;;;;;;4.39;43.99;101049.34;5039868;28;20421;-61
2022/04/05 02:02:56;;;;;;;10.45;8.52;;;;;;;4.42;44.08;101048.28;5046610;28;20425;-59
2022/04/05 02:05:23;;;;;;;12.27;9.03;;;;;;;4.36;44.18;101044.34;5046378;28;20505;-58
2022/04/05 02:07:49;;;;;;;11.65;8.70;;;;;;;4.30;44.42;101045.66;5045627;28;20497;-59
2022/04/05 02:10:18;;;;;;;11.02;9.45;;;;;;;4.34;44.14;101035.75;5046116;28;20506;-59
2022/04/05 02:12:45;;;;;;;16.73;12.27;;;;;;;4.33;44.36;101034.09;5046622;28;20609;-58
2022/04/05 02:15:12;;;;;;;11.48;8.90;;;;;;;4.36;44.56;101036.47;5046406;28;20792;-59
2022/04/05 02:17:40;;;;;;;12.50;10.17;;;;;;;4.50;44.63;101038.84;5045701;28;20935;-59
2022/04/05 02:20:09;;;;;;;13.63;11.02;;;;;;;4.50;44.46;101033.59;5042095;28;20479;-59
2022/04/05 02:22:36;;;;;;;15.55;14.15;;;;;;;4.39;44.85;101034.44;5046256;28;20414;-59
2022/04/05 02:25:03;;;;;;;16.40;14.73;;;;;;;4.41;44.67;101039.53;5045800;28;20501;-58
2022/04/05 02:27:32;;;;;;;14.35;12.63;;;;;;;4.45;44.64;101034.88;5045660;28;20423;-58
2022/04/05 02:29:59;;;;;;;13.67;11.00;;;;;;;4.43;44.74;101028.94;5046194;28;20445;-59
2022/04/05 02:32:26;;;;;;;13.15;11.35;;;;;;;4.42;44.68;101028.09;5045656;28;20472;-58
2022/04/05 02:34:52;;;;;;;15.65;14.05;;;;;;;4.38;44.64;101026.69;5045648;28;20508;-58
2022/04/05 02:37:19;;;;;;;15.93;10.73;;;;;;;4.43;44.41;101024.53;5045571;28;20428;-58
2022/04/05 02:39:46;;;;;;;12.23;9.90;;;;;;;4.42;44.85;101014.97;5045660;28;20508;-58
2022/04/05 02:42:13;;;;;;;17.45;13.75;;;;;;;4.38;45.19;101016.19;5045948;28;20445;-59
2022/04/05 02:44:42;;;;;;;14.85;10.70;;;;;;;4.43;44.95;101018.44;5045482;28;20500;-58
2022/04/05 02:47:10;;;;;;;14.60;10.80;;;;;;;4.37;45.21;101015.31;5045678;28;20413;-59
2022/04/05 02:49:37;;;;;;;13.35;10.25;;;;;;;4.27;45.19;101019.66;5045438;28;20426;-59
2022/04/05 02:52:05;;;;;;;14.10;10.43;;;;;;;4.25;45.24;101018.94;5045461;28;20433;-59
2022/04/05 02:54:32;;;;;;;13.20;10.65;;;;;;;4.10;45.65;101013.09;5045804;28;20489;-58
2022/04/05 02:56:59;;;;;;;13.23;9.95;;;;;;;4.05;45.04;101011.78;5045327;28;20422;-58
2022/04/05 02:59:26;;;;;;;14.13;9.90;;;;;;;4.05;45.55;101011.78;5045216;28;20414;-58
2022/04/05 03:01:54;;;;;;;14.15;10.45;;;;;;;4.06;45.47;101003.00;5044412;28;20421;-58
2022/04/05 03:04:21;;;;;;;14.63;10.95;;;;;;;4.08;45.63;101007.16;5032263;28;20792;-58
2022/04/05 03:06:48;;;;;;;13.05;9.90;;;;;;;3.81;45.96;101015.38;5032049;28;20826;-59
2022/04/05 03:09:15;;;;;;;12.68;10.45;;;;;;;3.96;45.08;101016.81;5032066;28;20501;-58
2022/04/05 03:11:43;;;;;;;15.30;12.07;;;;;;;3.97;45.29;101012.41;5031580;28;20541;-59
2022/04/05 03:14:10;;;;;;;17.08;12.27;;;;;;;3.91;45.32;101003.22;5032318;28;20426;-59
2022/04/05 03:16:39;;;;;;;16.75;13.95;;;;;;;3.71;45.58;101009.16;5031768;28;20804;-60
2022/04/05 03:19:08;;;;;;;15.93;12.97;;;;;;;3.76;45.57;101005.25;5031208;28;20418;-59
2022/04/05 03:21:35;;;;;;;18.10;13.90;;;;;;;3.84;45.43;101004.66;5031558;28;20418;-58
2022/04/05 03:24:02;;;;;;;15.60;12.52;;;;;;;3.66;45.42;101004.28;5030954;28;20971;-59
2022/04/05 03:26:28;;;;;;;16.50;12.63;;;;;;;3.35;46.45;101000.53;5031063;28;20418;-59
2022/04/05 03:28:57;;;;;;;16.77;12.48;;;;;;;3.52;45.86;101001.91;5030890;28;20423;-60
2022/04/05 03:31:24;;;;;;;15.20;12.57;;;;;;;3.50;46.24;100995.94;5030354;28;21015;-59
2022/04/05 03:33:50;;;;;;;18.50;12.40;;;;;;;3.63;46.17;100997.47;5030109;28;20433;-59
2022/04/05 03:36:19;;;;;;;17.52;12.63;;;;;;;3.66;46.05;101003.47;5029200;28;20505;-57
2022/04/05 03:38:46;;;;;;;19.60;14.85;;;;;;;3.71;46.17;101004.78;5028516;28;20410;-59
2022/04/05 03:41:13;;;;;;;22.38;16.63;;;;;;;3.65;46.54;101005.22;5028695;28;20422;-59
2022/04/05 03:43:40;;;;;;;20.58;16.42;;;;;;;3.62;47.32;101008.94;5030067;28;20932;-57
2022/04/05 03:46:06;;;;;;;22.65;15.15;;;;;;;3.72;47.26;101006.44;5028726;28;20509;-58
2022/04/05 03:48:33;;;;;;;21.23;16.70;;;;;;;3.59;47.95;100995.22;5030800;28;20459;-58
2022/04/05 03:51:00;;;;;;;19.67;17.65;;;;;;;3.64;48.26;100996.53;5030377;28;20426;-59
2022/04/05 03:53:28;;;;;;;16.83;14.25;;;;;;;3.77;47.69;100996.44;5030082;28;20517;-58
2022/04/05 03:55:55;;;;;;;15.33;11.97;;;;;;;3.86;47.78;100997.50;5029949;28;20433;-58
2022/04/05 03:58:22;;;;;;;14.60;10.93;;;;;;;3.83;47.98;101000.34;5027781;28;20418;-59
2022/04/05 04:00:51;;;;;;;12.05;10.70;;;;;;;3.79;47.49;101004.19;5030106;28;20422;-59
2022/04/05 04:03:18;;;;;;;13.65;11.40;;;;;;;3.85;47.37;101001.06;5029998;28;20418;-56
2022/04/05 04:05:45;;;;;;;23.42;16.13;;;;;;;3.90;47.36;101001.56;5028807;28;20513;-58
2022/04/05 04:08:12;;;;;;;19.88;14.38;;;;;;;4.10;47.18;101001.78;5029282;28;20419;-58
2022/04/05 04:10:40;;;;;;;17.30;12.27;;;;;;;4.23;46.83;101002.47;5030228;28;20431;-58
2022/04/05 04:13:07;;;;;;;14.70;10.93;;;;;;;4.45;46.35;101001.63;5030610;28;20430;-59
2022/04/05 04:15:34;;;;;;;14.98;12.77;;;;;;;4.54;46.42;101003.50;5026659;28;20423;-59
2022/04/05 04:18:01;;;;;;;14.30;11.75;;;;;;;4.84;45.97;101007.19;5022998;28;20517;-60
2022/04/05 04:20:28;;;;;;;15.02;12.85;;;;;;;5.16;45.35;100995.84;5023729;28;20414;-59
2022/04/05 04:22:55;;;;;;;19.40;14.03;;;;;;;5.57;43.89;100999.41;5027024;28;20521;-59
2022/04/05 04:25:21;;;;;;;16.13;12.95;;;;;;;5.72;44.11;100990.19;5026796;28;20441;-60
2022/04/05 04:27:50;;;;;;;18.45;16.65;;;;;;;6.15;42.89;100987.50;5027640;28;20505;-59
2022/04/05 04:30:17;;;;;;;16.85;13.60;;;;;;;6.37;42.63;100999.59;5016573;28;20501;-59
2022/04/05 04:32:44;;;;;;;14.05;11.48;;;;;;;6.54;41.89;100992.84;5015463;28;20519;-59
2022/04/05 04:35:12;;;;;;;13.93;10.93;;;;;;;7.00;41.62;100992.16;5011563;28;20518;-59
2022/04/05 04:37:39;;;;;;;14.00;11.57;;;;;;;7.78;39.71;100993.81;5022754;28;20524;-58
2022/04/05 04:40:07;;;;;;;19.43;13.30;;;;;;;8.04;39.99;100992.16;5025052;28;20423;-58
2022/04/05 04:42:35;;;;;;;16.95;13.15;;;;;;;8.51;39.69;100998.31;5026262;28;20461;-57
2022/04/05 04:45:04;;;;;;;15.57;12.85;;;;;;;8.90;38.76;100990.09;5028474;28;20418;-60
2022/04/05 04:47:31;;;;;;;17.33;12.50;;;;;;;9.26;37.72;100993.53;5024423;28;20983;-59
2022/04/05 04:49:58;;;;;;;38.30;22.33;;;;;;;9.35;38.18;100989.94;5024361;28;20498;-58
2022/04/05 04:52:26;;;;;;;36.55;20.20;;;;;;;9.45;37.60;100986.38;5022789;28;20506;-59
2022/04/05 04:54:54;;;;;;;26.08;17.63;;;;;;;10.02;36.50;100980.53;5025834;28;20426;-58
2022/04/05 04:57:22;;;;;;;28.63;18.77;;;;;;;10.85;34.99;100980.56;5025337;28;20923;-58
2022/04/05 04:59:49;;;;;;;82.43;72.90;;;;;;;11.20;34.37;100975.94;5025273;28;20459;-57
2022/04/05 05:02:18;;;;;;;36.25;32.53;;;;;;;11.74;33.38;100983.28;5023202;28;20418;-57
2022/04/05 05:04:44;;;;;;;21.40;17.70;;;;;;;12.07;32.43;100975.22;5023653;28;20507;-58
2022/04/05 05:07:14;;;;;;;24.65;20.08;;;;;;;12.46;31.87;100976.16;5024797;28;20552;-57
2022/04/05 05:09:41;;;;;;;19.08;16.05;;;;;;;12.95;30.78;100973.16;5023153;28;20494;-58
2022/04/05 05:12:10;;;;;;;15.32;12.27;;;;;;;13.30;29.99;100974.31;5026529;28;20434;-59
2022/04/05 05:14:37;;;;;;;13.65;11.23;;;;;;;13.65;29.39;100977.34;5028245;28;20441;-58
2022/04/05 05:17:04;;;;;;;14.05;10.20;;;;;;;13.76;28.69;100981.38;5028172;28;20422;-58
2022/04/05 05:19:33;;;;;;;14.85;9.55;;;;;;;14.02;28.29;100982.72;5025403;28;20505;-58
2022/04/05 05:22:00;;;;;;;11.65;9.25;;;;;;;14.34;27.71;100984.13;5027977;28;20414;-59
2022/04/05 05:24:27;;;;;;;11.95;8.77;;;;;;;14.50;27.42;100978.56;5027284;28;20904;-59
2022/04/05 05:26:54;;;;;;;12.98;10.00;;;;;;;14.04;27.89;100980.69;5027009;28;20974;-60
2022/04/05 05:29:20;;;;;;;13.60;9.88;;;;;;;14.37;27.38;100986.44;5026893;28;20414;-60
2022/04/05 05:31:47;;;;;;;13.18;9.65;;;;;;;14.67;26.84;100987.16;5024568;28;20426;-59
2022/04/05 05:34:21;;;;;;;18.75;13.35;;;;;;;14.72;27.11;100987.41;5027554;28;20453;-58
2022/04/05 05:36:49;;;;;;;14.90;11.17;;;;;;;15.42;26.06;100986.78;5015496;28;20463;-59
2022/04/05 05:39:16;;;;;;;16.15;10.77;;;;;;;16.79;24.48;100983.22;5020306;28;20431;-59
2022/04/05 05:41:44;;;;;;;13.48;10.90;;;;;;;18.01;22.97;100982.09;5013287;28;20428;-57
2022/04/05 05:44:11;;;;;;;13.57;9.80;;;;;;;19.65;21.22;100971.38;5020439;28;20457;-58
2022/04/05 05:46:38;;;;;;;17.35;11.32;;;;;;;21.22;19.37;100975.00;5023770;28;20420;-59
2022/04/05 05:49:04;;;;;;;12.07;9.90;;;;;;;;;;5017341;28;20470;-58
2022/04/05 05:51:31;;;;;;;31.03;12.27;;;;;;;23.57;16.90;100958.78;5012749;28;20909;-58
2022/04/05 05:54:00;;;;;;;22.53;11.07;;;;;;;24.98;16.01;100956.16;5019774;28;20516;-59
2022/04/05 05:56:27;;;;;;;61.17;14.60;;;;;;;25.42;15.84;100955.09;5013102;28;20416;-59
2022/04/05 05:58:54;;;;;;;14.35;10.73;;;;;;;26.24;14.88;100946.47;5014518;28;20439;-59
2022/04/05 06:01:21;;;;;;;11.30;9.77;;;;;;;26.82;14.28;100949.78;5011252;28;20939;-59
2022/04/05 06:03:48;;;;;;;10.10;8.98;;;;;;;27.51;13.93;100944.75;5020603;28;20451;-59
2022/04/05 06:06:15;;;;;;;9.65;8.65;;;;;;;27.75;13.50;100935.91;5020304;28;20420;-59
2022/04/05 06:08:42;;;;;;;12.18;9.20;;;;;;;28.40;13.26;100930.38;5024371;28;20445;-59
2022/04/05 06:11:10;;;;;;;11.02;9.15;;;;;;;29.18;12.44;100931.34;5021305;28;20476;-59
2022/04/05 06:13:38;;;;;;;14.00;10.02;;;;;;;29.85;12.36;100936.81;5017801;28;20440;-60
2022/04/05 06:16:07;;;;;;;14.93;10.50;;;;;;;30.41;11.94;100932.44;5021522;28;20422;-61
2022/04/05 06:18:34;;;;;;;14.05;10.30;;;;;;;31.62;11.24;100924.22;5020139;28;20814;-59
2022/04/05 06:21:01;;;;;;;11.43;9.70;;;;;;;32.16;10.80;100921.66;5015509;28;20427;-60
2022/04/05 06:23:28;;;;;;;13.52;10.55;;;;;;;33.32;10.35;100917.31;5012433;28;20481;-60
2022/04/05 06:25:55;;;;;;;12.73;10.80;;;;;;;33.72;9.88;100915.28;5016139;28;20517;-60
2022/04/05 06:28:23;;;;;;;18.83;10.52;;;;;;;34.02;10.13;100920.97;5023959;28;20510;-60
2022/04/05 06:30:50;;;;;;;10.77;9.50;;;;;;;34.40;9.68;100919.50;5019733;28;20521;-60
2022/04/05 06:33:19;;;;;;;11.82;10.65;;;;;;;34.74;9.18;100915.88;5027011;28;20421;-60
2022/04/05 06:35:49;;;;;;;14.77;12.23;;;;;;;35.37;9.07;100907.81;5024888;28;20477;-57
2022/04/05 06:38:16;;;;;;;14.13;12.70;;;;;;;35.96;8.60;100917.16;5027961;28;20951;-60
2022/04/05 06:40:43;;;;;;;13.07;10.77;;;;;;;36.50;8.77;100906.13;5030865;28;20418;-60
2022/04/05 06:43:10;;;;;;;14.43;12.98;;;;;;;37.09;8.37;100904.09;5031488;28;20943;-61
2022/04/05 06:45:39;;;;;;;13.73;12.18;;;;;;;37.16;8.05;100898.03;5031428;28;20804;-60
2022/04/05 06:48:06;;;;;;;14.70;12.33;;;;;;;37.68;7.72;100905.56;5030661;28;20943;-60
2022/04/05 06:50:33;;;;;;;12.23;10.90;;;;;;;37.84;7.79;100900.09;5031222;28;20422;-58
2022/04/05 06:53:01;;;;;;;13.90;11.68;;;;;;;37.66;7.78;100900.38;5030727;28;20433;-61
2022/04/05 06:55:28;;;;;;;12.10;10.03;;;;;;;37.76;7.70;100899.09;5031841;28;20410;-60
2022/04/05 06:57:56;;;;;;;11.38;9.80;;;;;;;37.82;7.81;100894.13;5030375;28;20418;-58
2022/04/05 07:00:25;;;;;;;13.88;12.48;;;;;;;37.47;8.51;100889.94;5030255;28;20493;-60
2022/04/05 07:02:54;;;;;;;12.18;10.82;;;;;;;37.64;8.21;100883.34;5031199;28;20799;-61
2022/04/05 07:05:21;;;;;;;11.48;9.60;;;;;;;38.72;7.73;100893.81;5031776;28;20422;-60
2022/04/05 07:07:48;;;;;;;11.50;9.77;;;;;;;39.83;7.22;100887.19;5031584;28;20430;-61
2022/04/05 07:10:17;;;;;;;11.52;9.73;;;;;;;40.49;6.89;100888.09;5031013;28;20450;-58
2022/04/05 07:12:45;;;;;;;10.38;8.98;;;;;;;38.87;7.64;100892.19;5031628;28;20436;-59
2022/04/05 07:15:12;;;;;;;10.93;9.43;;;;;;;40.39;6.78;100883.13;5031902;28;20517;-61
2022/04/05 07:17:40;;;;;;;9.37;8.57;;;;;;;40.18;6.70;100880.78;5030543;28;20437;-58
2022/04/05 07:20:10;;;;;;;9.82;8.82;;;;;;;40.20;6.80;100878.44;5030494;28;20517;-58
2022/04/05 07:22:37;;;;;;;9.10;8.30;;;;;;;41.36;6.24;100882.69;5031297;28;20936;-58
2022/04/05 07:25:05;;;;;;;8.73;7.95;;;;;;;41.72;5.85;100877.63;5030998;28;20988;-58
2022/04/05 07:27:31;;;;;;;9.30;8.18;;;;;;;41.08;5.77;100878.31;5030665;28;20433;-59
2022/04/05 07:29:58;;;;;;;7.63;7.03;;;;;;;40.96;5.74;100877.75;5031581;28;20426;-59
2022/04/05 07:32:26;;;;;;;8.10;7.40;;;;;;;42.85;5.06;100877.53;5031088;28;20501;-59
2022/04/05 07:34:54;;;;;;;6.90;6.20;;;;;;;43.33;4.70;100875.47;5031208;28;20496;-60
2022/04/05 07:37:22;;;;;;;7.07;6.37;;;;;;;42.26;5.15;100869.84;5031195;28;20415;-59
2022/04/05 07:39:49;;;;;;;7.45;6.75;;;;;;;41.52;5.33;100873.38;5031120;28;20505;-59
2022/04/05 07:42:16;;;;;;;8.00;7.30;;;;;;;41.37;5.21;100864.84;5031038;28;20422;-59
2022/04/05 07:44:43;;;;;;;7.80;7.10;;;;;;;40.43;5.65;100870.94;5030836;28;20438;-59
2022/04/05 07:47:09;;;;;;;8.10;7.28;;;;;;;32.89;10.04;100872.03;5030910;28;20422;-59
2022/04/05 07:51:21;;;;;;;13.10;11.70;;;;;;;27.10;13.56;100887.72;5115119;27;21058;-60
2022/04/05 07:53:48;;;;;;;15.77;14.25;;;;;;;24.02;16.44;100898.16;5106672;28;20413;-58
2022/04/05 07:56:14;;;;;;;17.48;15.52;;;;;;;21.10;19.36;100906.78;5106306;28;20433;-60
2022/04/05 07:58:42;;;;;;;18.38;16.58;;;;;;;21.30;19.65;100898.31;5106364;28;20504;-59
2022/04/05 08:01:09;;;;;;;21.38;18.33;;;;;;;20.16;21.64;100910.13;5107003;28;20412;-59
2022/04/05 08:03:36;;;;;;;18.02;16.20;;;;;;;19.67;21.76;100904.72;5106990;28;20506;-59
2022/04/05 08:06:03;;;;;;;18.67;15.32;;;;;;;19.09;23.06;100908.69;5106344;28;20839;-57
2022/04/05 08:08:32;;;;;;;16.13;13.68;;;;;;;18.84;23.36;100904.16;5110569;28;20514;-59
2022/04/05 08:10:59;;;;;;;15.90;12.68;;;;;;;18.43;24.14;100910.81;5118973;28;21009;-59
2022/04/05 08:13:27;;;;;;;16.17;12.97;;;;;;;17.68;25.19;100907.91;5106788;28;20500;-59
2022/04/05 08:15:54;;;;;;;15.35;12.88;;;;;;;17.58;25.39;100909.16;5106348;28;20419;-58
2022/04/05 08:18:39;;;;;;;15.32;12.43;;;;;;;17.48;25.68;100906.09;5109723;28;20442;-58
2022/04/05 08:21:06;;;;;;;13.93;11.48;;;;;;;17.13;26.24;100911.75;5106326;28;20447;-58
2022/04/05 08:23:35;;;;;;;16.27;11.85;;;;;;;16.54;27.07;100909.91;5106259;28;20412;-58
2022/04/05 08:26:02;;;;;;;13.73;12.10;;;;;;;16.49;27.18;100907.00;5115216;28;20415;-58
2022/04/05 08:28:28;;;;;;;15.55;12.07;;;;;;;16.17;27.45;100906.72;5127010;28;20505;-58
2022/04/05 08:30:55;;;;;;;13.50;11.57;;;;;;;16.68;27.19;100900.84;5126872;27;20514;-58
2022/04/05 08:33:22;;;;;;;11.93;10.20;;;;;;;17.11;26.79;100883.56;5126830;27;20429;-58
2022/04/05 08:35:49;;;;;;;10.80;9.70;;;;;;;16.24;27.99;100892.38;5126809;28;20399;-57
2022/04/05 08:38:16;;;;;;;11.30;10.10;;;;;;;16.17;28.30;100893.34;5127313;28;20490;-58
2022/04/05 08:40:44;;;;;;;12.88;9.50;;;;;;;16.24;28.68;100889.69;5127157;27;20418;-58
2022/04/05 08:43:11;;;;;;;9.82;8.70;;;;;;;16.68;28.08;100868.72;5126864;28;20412;-59
2022/04/05 08:45:43;;;;;;;9.40;8.50;;;;;;;16.92;27.54;100867.28;5126587;28;20411;-58
2022/04/05 08:48:11;;;;;;;11.37;8.73;;;;;;;15.92;28.87;100872.53;5126751;28;20411;-58
2022/04/05 08:50:38;;;;;;;13.40;10.35;;;;;;;16.12;28.90;100869.09;5126291;28;20561;-58
2022/04/05 08:53:05;;;;;;;11.43;10.02;;;;;;;16.51;28.80;100857.63;5126688;27;20537;-58
2022/04/05 08:55:35;;;;;;;12.10;9.93;;;;;;;16.20;29.21;100861.69;5126170;27;20418;-59
2022/04/05 08:58:03;;;;;;;12.82;10.30;;;;;;;16.03;29.68;100855.09;5126206;28;20414;-58
2022/04/05 09:00:30;;;;;;;12.25;9.32;;;;;;;16.08;29.34;100854.47;5125118;28;20403;-57
2022/04/05 09:02:59;;;;;;;15.60;9.73;;;;;;;16.38;29.28;100846.91;5112214;28;20503;-58
2022/04/05 09:05:28;;;;;;;11.20;9.70;;;;;;;16.81;28.88;100847.28;5113095;28;20418;-58
2022/04/05 09:07:55;;;;;;;11.30;9.40;;;;;;;17.00;28.33;100842.16;5112548;28;20499;-58
2022/04/05 09:10:22;;;;;;;12.68;9.13;;;;;;;16.44;29.06;100841.56;5112397;28;20434;-60
2022/04/05 09:12:51;;;;;;;9.48;8.40;;;;;;;16.65;28.95;100833.53;5112316;28;20793;-59
2022/04/05 09:15:26;;;;;;;13.93;11.10;;;;;;;16.79;28.61;100835.97;5112516;28;20418;-57
2022/04/05 09:17:54;;;;;;;10.93;8.73;;;;;;;16.74;29.17;100826.91;5112171;28;20730;-58
2022/04/05 09:20:24;;;;;;;9.75;7.97;;;;;;;16.58;28.82;100836.19;5112185;28;20904;-58
2022/04/05 09:22:52;;;;;;;9.55;7.38;;;;;;;17.33;28.39;100828.66;5112083;28;20939;-58
2022/04/05 09:25:19;;;;;;;10.30;6.88;;;;;;;17.61;28.07;100821.31;5112465;28;20464;-59
2022/04/05 09:27:48;;;;;;;8.70;6.80;;;;;;;17.57;27.24;100824.44;5112401;28;20412;-58
2022/04/05 09:30:16;;;;;;;8.02;6.63;;;;;;;17.64;26.84;100816.34;5112250;28;20431;-59
2022/04/05 09:32:48;;;;;;;7.00;6.05;;;;;;;17.63;26.99;100816.56;5112201;28;20411;-58
2022/04/05 09:35:16;;;;;;;8.48;6.57;;;;;;;17.82;26.98;100815.63;5112273;28;20407;-58
2022/04/05 09:37:43;;;;;;;7.65;6.60;;;;;;;18.06;26.77;100807.88;5112512;28;20514;-58
2022/04/05 09:40:19;;;;;;;6.82;6.13;;;;;;;17.61;28.20;100803.41;5111788;28;20407;-59
2022/04/05 09:42:59;;;;;;;7.35;5.82;;;;;;;17.81;26.77;100794.41;5112239;28;20403;-59
2022/04/05 09:45:43;;;;;;;8.68;6.63;;;;;;;17.87;26.94;100791.72;5111755;28;20428;-58
2022/04/05 09:48:12;;;;;;;7.38;5.50;;;;;;;17.52;26.89;100783.22;5112082;28;20490;-59
2022/04/05 09:51:03;;;;;;;6.88;5.95;;;;;;;17.71;26.59;100786.84;5111954;28;20458;-58
2022/04/05 09:53:41;;;;;;;7.70;5.65;;;;;;;17.59;27.18;100778.66;5111826;28;20437;-58
2022/04/05 09:56:10;;;;;;;6.35;5.55;;;;;;;17.39;27.40;100771.56;5111551;28;20793;-60
2022/04/05 09:58:43;;;;;;;7.88;5.53;;;;;;;17.68;27.02;100760.44;5111604;28;20494;-59
2022/04/05 10:01:11;;;;;;;6.45;5.57;;;;;;;18.12;26.50;100759.56;5111332;28;20418;-58
2022/04/05 10:03:40;;;;;;;6.60;5.13;;;;;;;18.11;25.27;100755.25;5111409;27;20412;-58
2022/04/05 10:06:08;;;;;;;6.38;5.28;;;;;;;17.88;25.05;100752.31;5111539;28;20400;-59
2022/04/05 10:08:37;;;;;;;6.70;5.30;;;;;;;17.70;25.75;100750.31;5111412;28;20616;-59
2022/04/05 10:11:05;;;;;;;6.20;5.00;;;;;;;18.18;25.64;100740.94;5111024;28;20506;-59
2022/04/05 10:13:32;;;;;;;7.85;4.70;;;;;;;18.42;24.42;100741.94;5110462;28;20410;-58
2022/04/05 10:16:01;;;;;;;5.33;4.60;;;;;;;18.17;24.58;100731.25;5111565;28;20777;-61
2022/04/05 10:18:34;;;;;;;5.80;4.80;;;;;;;17.75;24.85;100734.41;5111673;28;20461;-58
2022/04/05 10:21:04;;;;;;;6.55;5.10;;;;;;;18.28;25.23;100728.66;5110830;28;20495;-59
2022/04/05 10:23:32;;;;;;;5.35;4.45;;;;;;;18.27;24.49;100718.97;5111324;28;20411;-58
2022/04/05 10:26:00;;;;;;;6.53;4.82;;;;;;;17.82;24.95;100721.78;5111207;28;20411;-59
2022/04/05 10:28:30;;;;;;;5.53;4.90;;;;;;;17.61;25.18;100714.94;5111017;28;20443;-58
2022/04/05 10:31:02;;;;;;;5.90;4.55;;;;;;;17.84;24.94;100711.66;5110805;28;20424;-59
2022/04/05 10:33:36;;;;;;;6.85;4.63;;;;;;;18.20;24.71;100701.28;5110563;28;20498;-59
2022/04/05 10:36:05;;;;;;;6.43;4.60;;;;;;;18.28;24.63;100698.34;5110687;28;20901;-59
2022/04/05 10:38:32;;;;;;;7.55;4.25;;;;;;;18.29;24.29;100699.97;5110710;27;20443;-59
2022/04/05 10:43:25;;;;;;;5.38;4.60;;;;;;;18.64;23.66;100692.16;5126938;27;20407;-58
2022/04/05 10:45:51;;;;;;;5.70;4.50;;;;;;;18.66;23.67;100684.72;5127965;28;20402;-58
2022/04/05 10:48:21;;;;;;;5.65;3.95;;;;;;;18.80;23.76;100692.59;5127441;28;20915;-58
2022/04/05 10:51:12;;;;;;;5.85;4.20;;;;;;;18.40;23.62;100688.53;5127222;28;20903;-58
2022/04/05 10:53:41;;;;;;;5.07;4.22;;;;;;;18.36;23.99;100676.56;5127672;27;20475;-58
2022/04/05 10:56:17;;;;;;;4.05;3.60;;;;;;;18.75;22.79;100666.44;5112365;27;20416;-58
2022/04/05 10:59:18;;;;;;;4.53;3.67;;;;;;;19.05;22.56;100666.50;5107035;28;20400;-59
2022/04/05 11:01:45;;;;;;;6.10;3.88;;;;;;;18.80;23.51;100655.84;5106580;28;20566;-59
2022/04/05 11:04:33;;;;;;;5.10;3.80;;;;;;;18.48;23.67;100647.13;5107042;28;20426;-59
2022/04/05 11:07:11;;;;;;;5.03;3.47;;;;;;;18.28;23.64;100644.66;5106887;28;20419;-59
2022/04/05 11:09:49;;;;;;;4.67;3.97;;;;;;;18.60;23.54;100639.97;5106566;28;20409;-59
2022/04/05 11:12:21;;;;;;;5.47;3.72;;;;;;;18.82;23.11;100643.03;5106730;28;20404;-58
2022/04/05 11:14:53;;;;;;;4.55;3.83;;;;;;;19.02;23.08;100640.06;5104642;28;20404;-59
2022/04/05 11:17:21;;;;;;;4.47;3.70;;;;;;;19.22;22.26;100629.03;5101802;28;20419;-59
2022/04/05 11:19:51;;;;;;;6.07;3.80;;;;;;;18.71;22.83;100617.72;5106458;28;20416;-59
2022/04/05 11:22:30;;;;;;;4.75;3.47;;;;;;;18.61;22.87;100622.00;5106451;28;20429;-60
2022/04/05 11:26:29;;;;;;;4.97;3.80;;;;;;;18.84;22.49;100622.13;5081125;27;20406;-58
2022/04/05 11:28:58;;;;;;;76.28;51.88;;;;;;;19.02;22.52;100623.16;5086867;28;20506;-58
2022/04/05 11:31:39;;;;;;;5.55;4.50;;;;;;;19.09;22.68;100611.25;5075207;28;20546;-58
2022/04/05 11:34:33;;;;;;;4.65;3.33;;;;;;;18.96;22.55;100605.25;5086717;28;20858;-58
2022/04/05 11:37:00;;;;;;;4.50;3.67;;;;;;;19.18;22.09;100598.31;5084319;28;20426;-59